sensor_id;sensor_type;location;lat;lon;timestamp;P1;durP1;ratioP1;P2;durP2;ratioP2
47529;SDS011;33272;51.922;7.730;2023-08-17T00:01:39;2.33;;;1.53;;
47529;SDS011;33272;51.922;7.730;2023-08-17T00:04:06;3.77;;;1.67;;
47529;SDS011;33272;51.922;7.730;2023-08-17T00:06:33;6.27;;;2.00;;
47529;SDS011;33272;51.922;7.730;2023-08-17T00:09:02;4.53;;;1.90;;
47529;SDS011;33272;51.922;7.730;2023-08-17T00:11:29;2.70;;;1.90;;
47529;SDS011;33272;51.922;7.730;2023-08-17T00:13:56;3.30;;;1.90;;
47529;SDS011;33272;51.922;7.730;2023-08-17T00:16:23;3.00;;;2.00;;
47529;SDS011;33272;51.922;7.730;2023-08-17T00:18:51;2.77;;;2.03;;
47529;SDS011;33272;51.922;7.730;2023-08-17T00:21:18;2.37;;;1.70;;
47529;SDS011;33272;51.922;7.730;2023-08-17T00:23:45;2.67;;;1.80;;
47529;SDS011;33272;51.922;7.730;2023-08-17T00:26:13;4.17;;;2.50;;
47529;SDS011;33272;51.922;7.730;2023-08-17T00:28:40;2.50;;;1.90;;
47529;SDS011;33272;51.922;7.730;2023-08-17T00:31:07;5.83;;;2.13;;
47529;SDS011;33272;51.922;7.730;2023-08-17T00:33:34;5.43;;;2.77;;
47529;SDS011;33272;51.922;7.730;2023-08-17T00:36:01;2.70;;;1.87;;
47529;SDS011;33272;51.922;7.730;2023-08-17T00:38:28;3.47;;;2.27;;
47529;SDS011;33272;51.922;7.730;2023-08-17T00:40:55;4.27;;;2.20;;
47529;SDS011;33272;51.922;7.730;2023-08-17T00:43:23;2.60;;;1.90;;
47529;SDS011;33272;51.922;7.730;2023-08-17T00:45:50;4.40;;;2.07;;
47529;SDS011;33272;51.922;7.730;2023-08-17T00:48:18;3.40;;;1.87;;
47529;SDS011;33272;51.922;7.730;2023-08-17T00:50:45;2.00;;;1.63;;
47529;SDS011;33272;51.922;7.730;2023-08-17T00:53:16;4.07;;;2.00;;
47529;SDS011;33272;51.922;7.730;2023-08-17T00:55:44;3.47;;;1.87;;
47529;SDS011;33272;51.922;7.730;2023-08-17T00:58:11;4.77;;;2.30;;
47529;SDS011;33272;51.922;7.730;2023-08-17T01:00:40;3.33;;;1.83;;
47529;SDS011;33272;51.922;7.730;2023-08-17T01:03:07;4.27;;;2.07;;
47529;SDS011;33272;51.922;7.730;2023-08-17T01:05:34;3.23;;;2.17;;
47529;SDS011;33272;51.922;7.730;2023-08-17T01:08:02;4.83;;;1.80;;
47529;SDS011;33272;51.922;7.730;2023-08-17T01:10:31;3.13;;;2.10;;
47529;SDS011;33272;51.922;7.730;2023-08-17T01:13:09;2.43;;;2.00;;
47529;SDS011;33272;51.922;7.730;2023-08-17T01:15:45;7.90;;;2.97;;
47529;SDS011;33272;51.922;7.730;2023-08-17T01:18:17;5.30;;;2.70;;
47529;SDS011;33272;51.922;7.730;2023-08-17T01:20:49;4.57;;;2.90;;
47529;SDS011;33272;51.922;7.730;2023-08-17T01:23:19;8.03;;;2.40;;
47529;SDS011;33272;51.922;7.730;2023-08-17T01:25:47;5.30;;;2.47;;
47529;SDS011;33272;51.922;7.730;2023-08-17T01:28:14;3.47;;;2.13;;
47529;SDS011;33272;51.922;7.730;2023-08-17T01:30:43;4.67;;;1.90;;
47529;SDS011;33272;51.922;7.730;2023-08-17T01:33:17;3.77;;;2.30;;
47529;SDS011;33272;51.922;7.730;2023-08-17T01:35:54;5.07;;;2.50;;
47529;SDS011;33272;51.922;7.730;2023-08-17T01:38:32;4.10;;;2.47;;
47529;SDS011;33272;51.922;7.730;2023-08-17T01:41:01;5.83;;;2.50;;
47529;SDS011;33272;51.922;7.730;2023-08-17T01:43:30;5.20;;;2.47;;
47529;SDS011;33272;51.922;7.730;2023-08-17T01:45:58;3.80;;;2.40;;
47529;SDS011;33272;51.922;7.730;2023-08-17T01:48:25;3.97;;;2.70;;
47529;SDS011;33272;51.922;7.730;2023-08-17T01:50:52;4.97;;;3.00;;
47529;SDS011;33272;51.922;7.730;2023-08-17T01:53:20;3.80;;;2.83;;
47529;SDS011;33272;51.922;7.730;2023-08-17T01:55:48;4.30;;;2.50;;
47529;SDS011;33272;51.922;7.730;2023-08-17T01:58:15;5.60;;;2.77;;
47529;SDS011;33272;51.922;7.730;2023-08-17T02:00:42;5.73;;;2.87;;
47529;SDS011;33272;51.922;7.730;2023-08-17T02:03:09;3.30;;;2.40;;
47529;SDS011;33272;51.922;7.730;2023-08-17T02:05:36;4.40;;;2.90;;
47529;SDS011;33272;51.922;7.730;2023-08-17T02:08:03;5.67;;;3.03;;
47529;SDS011;33272;51.922;7.730;2023-08-17T02:10:30;4.60;;;3.03;;
47529;SDS011;33272;51.922;7.730;2023-08-17T02:12:59;4.37;;;3.10;;
47529;SDS011;33272;51.922;7.730;2023-08-17T02:15:26;6.73;;;3.30;;
47529;SDS011;33272;51.922;7.730;2023-08-17T02:17:53;5.60;;;3.07;;
47529;SDS011;33272;51.922;7.730;2023-08-17T02:20:19;3.70;;;3.10;;
47529;SDS011;33272;51.922;7.730;2023-08-17T02:22:46;5.10;;;2.97;;
47529;SDS011;33272;51.922;7.730;2023-08-17T02:25:13;4.70;;;3.10;;
47529;SDS011;33272;51.922;7.730;2023-08-17T02:27:41;5.40;;;2.90;;
47529;SDS011;33272;51.922;7.730;2023-08-17T02:30:10;5.80;;;3.30;;
47529;SDS011;33272;51.922;7.730;2023-08-17T02:32:38;4.17;;;3.40;;
47529;SDS011;33272;51.922;7.730;2023-08-17T02:35:06;4.30;;;3.20;;
47529;SDS011;33272;51.922;7.730;2023-08-17T02:37:34;9.30;;;3.40;;
47529;SDS011;33272;51.922;7.730;2023-08-17T02:40:01;4.60;;;3.47;;
47529;SDS011;33272;51.922;7.730;2023-08-17T02:42:29;6.10;;;3.50;;
47529;SDS011;33272;51.922;7.730;2023-08-17T02:44:56;5.23;;;3.37;;
47529;SDS011;33272;51.922;7.730;2023-08-17T02:47:24;5.70;;;3.10;;
47529;SDS011;33272;51.922;7.730;2023-08-17T02:49:51;3.40;;;3.10;;
47529;SDS011;33272;51.922;7.730;2023-08-17T02:52:18;5.43;;;3.40;;
47529;SDS011;33272;51.922;7.730;2023-08-17T02:54:45;7.10;;;3.60;;
47529;SDS011;33272;51.922;7.730;2023-08-17T02:57:12;5.83;;;3.03;;
47529;SDS011;33272;51.922;7.730;2023-08-17T02:59:39;4.13;;;3.20;;
47529;SDS011;33272;51.922;7.730;2023-08-17T03:02:06;6.27;;;3.10;;
47529;SDS011;33272;51.922;7.730;2023-08-17T03:04:35;5.13;;;3.23;;
47529;SDS011;33272;51.922;7.730;2023-08-17T03:07:02;5.67;;;3.30;;
47529;SDS011;33272;51.922;7.730;2023-08-17T03:09:29;3.37;;;2.87;;
47529;SDS011;33272;51.922;7.730;2023-08-17T03:11:56;4.17;;;3.03;;
47529;SDS011;33272;51.922;7.730;2023-08-17T03:14:23;4.53;;;2.73;;
47529;SDS011;33272;51.922;7.730;2023-08-17T03:16:50;4.50;;;3.07;;
47529;SDS011;33272;51.922;7.730;2023-08-17T03:19:17;4.60;;;3.03;;
47529;SDS011;33272;51.922;7.730;2023-08-17T03:21:45;5.17;;;2.97;;
47529;SDS011;33272;51.922;7.730;2023-08-17T03:24:12;6.10;;;3.43;;
47529;SDS011;33272;51.922;7.730;2023-08-17T03:26:39;3.60;;;3.27;;
47529;SDS011;33272;51.922;7.730;2023-08-17T03:29:06;5.53;;;3.10;;
47529;SDS011;33272;51.922;7.730;2023-08-17T03:31:34;5.53;;;3.30;;
47529;SDS011;33272;51.922;7.730;2023-08-17T03:34:01;5.83;;;3.27;;
47529;SDS011;33272;51.922;7.730;2023-08-17T03:36:29;4.03;;;3.47;;
47529;SDS011;33272;51.922;7.730;2023-08-17T03:38:57;5.73;;;3.30;;
47529;SDS011;33272;51.922;7.730;2023-08-17T03:41:24;6.57;;;3.40;;
47529;SDS011;33272;51.922;7.730;2023-08-17T03:43:51;7.30;;;3.57;;
47529;SDS011;33272;51.922;7.730;2023-08-17T03:46:18;3.40;;;3.10;;
47529;SDS011;33272;51.922;7.730;2023-08-17T03:48:45;7.40;;;3.33;;
47529;SDS011;33272;51.922;7.730;2023-08-17T03:51:12;3.97;;;3.30;;
47529;SDS011;33272;51.922;7.730;2023-08-17T03:53:39;7.17;;;3.43;;
47529;SDS011;33272;51.922;7.730;2023-08-17T03:56:07;5.20;;;3.17;;
47529;SDS011;33272;51.922;7.730;2023-08-17T03:58:34;4.20;;;3.10;;
47529;SDS011;33272;51.922;7.730;2023-08-17T04:01:01;4.30;;;3.50;;
47529;SDS011;33272;51.922;7.730;2023-08-17T04:03:30;5.83;;;3.90;;
47529;SDS011;33272;51.922;7.730;2023-08-17T04:05:57;6.67;;;3.80;;
47529;SDS011;33272;51.922;7.730;2023-08-17T04:08:30;5.07;;;3.50;;
47529;SDS011;33272;51.922;7.730;2023-08-17T04:10:57;6.87;;;3.27;;
47529;SDS011;33272;51.922;7.730;2023-08-17T04:13:25;4.63;;;4.07;;
47529;SDS011;33272;51.922;7.730;2023-08-17T04:15:52;4.57;;;3.60;;
47529;SDS011;33272;51.922;7.730;2023-08-17T04:18:19;4.93;;;3.97;;
47529;SDS011;33272;51.922;7.730;2023-08-17T04:20:46;5.10;;;3.40;;
47529;SDS011;33272;51.922;7.730;2023-08-17T04:23:13;5.60;;;4.53;;
47529;SDS011;33272;51.922;7.730;2023-08-17T04:25:40;7.77;;;3.97;;
47529;SDS011;33272;51.922;7.730;2023-08-17T04:28:08;6.80;;;3.53;;
47529;SDS011;33272;51.922;7.730;2023-08-17T04:30:36;5.77;;;3.67;;
47529;SDS011;33272;51.922;7.730;2023-08-17T04:33:04;7.97;;;3.50;;
47529;SDS011;33272;51.922;7.730;2023-08-17T04:35:32;5.17;;;3.10;;
47529;SDS011;33272;51.922;7.730;2023-08-17T04:38:00;8.70;;;3.90;;
47529;SDS011;33272;51.922;7.730;2023-08-17T04:40:27;4.73;;;3.03;;
47529;SDS011;33272;51.922;7.730;2023-08-17T04:42:53;4.57;;;3.60;;
47529;SDS011;33272;51.922;7.730;2023-08-17T04:45:20;4.37;;;3.10;;
47529;SDS011;33272;51.922;7.730;2023-08-17T04:47:49;6.03;;;3.77;;
47529;SDS011;33272;51.922;7.730;2023-08-17T04:50:16;5.67;;;4.00;;
47529;SDS011;33272;51.922;7.730;2023-08-17T04:52:43;4.00;;;3.57;;
47529;SDS011;33272;51.922;7.730;2023-08-17T04:55:11;7.97;;;3.70;;
47529;SDS011;33272;51.922;7.730;2023-08-17T04:57:38;6.57;;;3.40;;
47529;SDS011;33272;51.922;7.730;2023-08-17T05:00:06;10.40;;;4.27;;
47529;SDS011;33272;51.922;7.730;2023-08-17T05:02:34;4.40;;;3.53;;
47529;SDS011;33272;51.922;7.730;2023-08-17T05:05:04;4.20;;;2.90;;
47529;SDS011;33272;51.922;7.730;2023-08-17T05:07:33;5.37;;;4.00;;
47529;SDS011;33272;51.922;7.730;2023-08-17T05:10:01;5.47;;;3.67;;
47529;SDS011;33272;51.922;7.730;2023-08-17T05:12:28;5.77;;;4.10;;
47529;SDS011;33272;51.922;7.730;2023-08-17T05:14:55;6.63;;;4.00;;
47529;SDS011;33272;51.922;7.730;2023-08-17T05:17:22;3.87;;;3.20;;
47529;SDS011;33272;51.922;7.730;2023-08-17T05:19:49;4.63;;;3.73;;
47529;SDS011;33272;51.922;7.730;2023-08-17T05:22:17;5.50;;;3.63;;
47529;SDS011;33272;51.922;7.730;2023-08-17T05:24:45;7.27;;;3.70;;
47529;SDS011;33272;51.922;7.730;2023-08-17T05:27:12;5.97;;;3.10;;
47529;SDS011;33272;51.922;7.730;2023-08-17T05:29:39;5.57;;;3.57;;
47529;SDS011;33272;51.922;7.730;2023-08-17T05:32:06;5.63;;;3.67;;
47529;SDS011;33272;51.922;7.730;2023-08-17T05:34:33;4.13;;;3.47;;
47529;SDS011;33272;51.922;7.730;2023-08-17T05:37:00;6.73;;;3.93;;
47529;SDS011;33272;51.922;7.730;2023-08-17T05:39:29;5.07;;;3.60;;
47529;SDS011;33272;51.922;7.730;2023-08-17T05:41:56;6.40;;;3.83;;
47529;SDS011;33272;51.922;7.730;2023-08-17T05:44:23;5.40;;;3.53;;
47529;SDS011;33272;51.922;7.730;2023-08-17T05:46:50;4.33;;;3.60;;
47529;SDS011;33272;51.922;7.730;2023-08-17T05:49:17;7.70;;;3.73;;
47529;SDS011;33272;51.922;7.730;2023-08-17T05:51:44;4.77;;;4.17;;
47529;SDS011;33272;51.922;7.730;2023-08-17T05:54:11;5.63;;;3.50;;
47529;SDS011;33272;51.922;7.730;2023-08-17T05:56:40;4.90;;;4.10;;
47529;SDS011;33272;51.922;7.730;2023-08-17T05:59:09;7.63;;;3.67;;
47529;SDS011;33272;51.922;7.730;2023-08-17T06:01:36;4.10;;;3.70;;
47529;SDS011;33272;51.922;7.730;2023-08-17T06:04:04;11.10;;;4.30;;
47529;SDS011;33272;51.922;7.730;2023-08-17T06:06:32;5.83;;;3.77;;
47529;SDS011;33272;51.922;7.730;2023-08-17T06:08:59;6.20;;;4.33;;
47529;SDS011;33272;51.922;7.730;2023-08-17T06:11:26;6.30;;;4.10;;
47529;SDS011;33272;51.922;7.730;2023-08-17T06:13:54;5.87;;;4.23;;
47529;SDS011;33272;51.922;7.730;2023-08-17T06:16:21;10.83;;;4.57;;
47529;SDS011;33272;51.922;7.730;2023-08-17T06:18:48;7.47;;;4.23;;
47529;SDS011;33272;51.922;7.730;2023-08-17T06:21:16;5.43;;;3.53;;
47529;SDS011;33272;51.922;7.730;2023-08-17T06:23:43;5.00;;;3.70;;
47529;SDS011;33272;51.922;7.730;2023-08-17T06:26:10;7.07;;;4.00;;
47529;SDS011;33272;51.922;7.730;2023-08-17T06:28:37;6.60;;;4.43;;
47529;SDS011;33272;51.922;7.730;2023-08-17T06:31:05;8.60;;;4.20;;
47529;SDS011;33272;51.922;7.730;2023-08-17T06:33:32;5.63;;;4.20;;
47529;SDS011;33272;51.922;7.730;2023-08-17T06:35:59;3.80;;;3.50;;
47529;SDS011;33272;51.922;7.730;2023-08-17T06:38:26;7.27;;;3.77;;
47529;SDS011;33272;51.922;7.730;2023-08-17T06:40:53;4.53;;;3.53;;
47529;SDS011;33272;51.922;7.730;2023-08-17T06:43:19;4.63;;;3.57;;
47529;SDS011;33272;51.922;7.730;2023-08-17T06:45:46;6.10;;;3.57;;
47529;SDS011;33272;51.922;7.730;2023-08-17T06:48:15;6.07;;;3.97;;
47529;SDS011;33272;51.922;7.730;2023-08-17T06:50:42;7.00;;;3.90;;
47529;SDS011;33272;51.922;7.730;2023-08-17T06:53:09;7.90;;;4.17;;
47529;SDS011;33272;51.922;7.730;2023-08-17T06:55:36;5.57;;;3.60;;
47529;SDS011;33272;51.922;7.730;2023-08-17T06:58:03;7.43;;;3.70;;
47529;SDS011;33272;51.922;7.730;2023-08-17T07:00:30;6.40;;;4.23;;
47529;SDS011;33272;51.922;7.730;2023-08-17T07:02:57;7.33;;;4.10;;
47529;SDS011;33272;51.922;7.730;2023-08-17T07:05:25;5.93;;;3.70;;
47529;SDS011;33272;51.922;7.730;2023-08-17T07:07:52;6.00;;;4.27;;
47529;SDS011;33272;51.922;7.730;2023-08-17T07:10:20;5.10;;;4.23;;
47529;SDS011;33272;51.922;7.730;2023-08-17T07:12:47;8.03;;;4.50;;
47529;SDS011;33272;51.922;7.730;2023-08-17T07:15:14;8.53;;;4.03;;
47529;SDS011;33272;51.922;7.730;2023-08-17T07:17:41;6.23;;;4.37;;
47529;SDS011;33272;51.922;7.730;2023-08-17T07:20:08;6.47;;;3.97;;
47529;SDS011;33272;51.922;7.730;2023-08-17T07:22:38;6.17;;;4.23;;
47529;SDS011;33272;51.922;7.730;2023-08-17T07:25:06;6.83;;;4.37;;
47529;SDS011;33272;51.922;7.730;2023-08-17T07:27:34;6.87;;;4.50;;
47529;SDS011;33272;51.922;7.730;2023-08-17T07:30:01;6.80;;;4.17;;
47529;SDS011;33272;51.922;7.730;2023-08-17T07:32:29;6.33;;;4.60;;
47529;SDS011;33272;51.922;7.730;2023-08-17T07:34:56;7.30;;;4.80;;
47529;SDS011;33272;51.922;7.730;2023-08-17T07:37:23;11.10;;;5.00;;
47529;SDS011;33272;51.922;7.730;2023-08-17T07:39:57;6.63;;;4.57;;
47529;SDS011;33272;51.922;7.730;2023-08-17T07:42:24;6.67;;;4.70;;
47529;SDS011;33272;51.922;7.730;2023-08-17T07:44:51;6.83;;;4.30;;
47529;SDS011;33272;51.922;7.730;2023-08-17T07:47:18;8.13;;;4.67;;
47529;SDS011;33272;51.922;7.730;2023-08-17T07:49:45;7.67;;;4.93;;
47529;SDS011;33272;51.922;7.730;2023-08-17T07:52:12;7.67;;;4.97;;
47529;SDS011;33272;51.922;7.730;2023-08-17T07:54:39;8.37;;;5.30;;
47529;SDS011;33272;51.922;7.730;2023-08-17T07:57:07;7.40;;;5.03;;
47529;SDS011;33272;51.922;7.730;2023-08-17T07:59:34;6.80;;;4.40;;
47529;SDS011;33272;51.922;7.730;2023-08-17T08:02:01;7.23;;;5.00;;
47529;SDS011;33272;51.922;7.730;2023-08-17T08:04:28;8.70;;;5.03;;
47529;SDS011;33272;51.922;7.730;2023-08-17T08:06:55;5.73;;;4.57;;
47529;SDS011;33272;51.922;7.730;2023-08-17T08:09:22;8.10;;;5.37;;
47529;SDS011;33272;51.922;7.730;2023-08-17T08:11:49;8.53;;;5.00;;
47529;SDS011;33272;51.922;7.730;2023-08-17T08:14:18;7.83;;;5.07;;
47529;SDS011;33272;51.922;7.730;2023-08-17T08:16:45;6.87;;;4.80;;
47529;SDS011;33272;51.922;7.730;2023-08-17T08:19:12;7.70;;;4.97;;
47529;SDS011;33272;51.922;7.730;2023-08-17T08:21:39;9.27;;;4.93;;
47529;SDS011;33272;51.922;7.730;2023-08-17T08:24:06;9.23;;;5.30;;
47529;SDS011;33272;51.922;7.730;2023-08-17T08:26:33;8.63;;;5.57;;
47529;SDS011;33272;51.922;7.730;2023-08-17T08:29:00;6.63;;;4.73;;
47529;SDS011;33272;51.922;7.730;2023-08-17T08:31:28;7.73;;;4.77;;
47529;SDS011;33272;51.922;7.730;2023-08-17T08:33:55;8.97;;;5.07;;
47529;SDS011;33272;51.922;7.730;2023-08-17T08:36:22;8.63;;;4.90;;
47529;SDS011;33272;51.922;7.730;2023-08-17T08:38:49;7.93;;;5.03;;
47529;SDS011;33272;51.922;7.730;2023-08-17T08:41:16;8.30;;;5.30;;
47529;SDS011;33272;51.922;7.730;2023-08-17T08:43:43;9.47;;;5.27;;
47529;SDS011;33272;51.922;7.730;2023-08-17T08:46:10;9.00;;;5.77;;
47529;SDS011;33272;51.922;7.730;2023-08-17T08:48:40;6.90;;;5.33;;
47529;SDS011;33272;51.922;7.730;2023-08-17T08:51:09;9.07;;;5.67;;
47529;SDS011;33272;51.922;7.730;2023-08-17T08:53:43;8.80;;;5.63;;
47529;SDS011;33272;51.922;7.730;2023-08-17T08:56:12;7.57;;;5.37;;
47529;SDS011;33272;51.922;7.730;2023-08-17T08:58:41;7.27;;;5.27;;
47529;SDS011;33272;51.922;7.730;2023-08-17T09:01:09;6.73;;;4.70;;
47529;SDS011;33272;51.922;7.730;2023-08-17T09:03:37;7.60;;;6.30;;
47529;SDS011;33272;51.922;7.730;2023-08-17T09:06:06;8.47;;;5.13;;
47529;SDS011;33272;51.922;7.730;2023-08-17T09:08:35;9.17;;;5.57;;
47529;SDS011;33272;51.922;7.730;2023-08-17T09:11:02;6.70;;;4.97;;
47529;SDS011;33272;51.922;7.730;2023-08-17T09:13:29;8.67;;;5.30;;
47529;SDS011;33272;51.922;7.730;2023-08-17T09:15:57;6.37;;;5.37;;
47529;SDS011;33272;51.922;7.730;2023-08-17T09:18:26;8.93;;;5.70;;
47529;SDS011;33272;51.922;7.730;2023-08-17T09:20:53;8.10;;;6.70;;
47529;SDS011;33272;51.922;7.730;2023-08-17T09:23:22;9.57;;;5.87;;
47529;SDS011;33272;51.922;7.730;2023-08-17T09:25:49;9.60;;;5.53;;
47529;SDS011;33272;51.922;7.730;2023-08-17T09:28:22;6.10;;;5.20;;
47529;SDS011;33272;51.922;7.730;2023-08-17T09:30:53;11.67;;;6.57;;
47529;SDS011;33272;51.922;7.730;2023-08-17T09:33:23;6.90;;;5.60;;
47529;SDS011;33272;51.922;7.730;2023-08-17T09:35:52;6.43;;;5.70;;
47529;SDS011;33272;51.922;7.730;2023-08-17T09:38:20;7.93;;;5.57;;
47529;SDS011;33272;51.922;7.730;2023-08-17T09:40:49;8.13;;;6.37;;
47529;SDS011;33272;51.922;7.730;2023-08-17T09:43:17;7.50;;;5.63;;
47529;SDS011;33272;51.922;7.730;2023-08-17T09:45:46;7.37;;;5.93;;
47529;SDS011;33272;51.922;7.730;2023-08-17T09:48:15;9.63;;;6.20;;
47529;SDS011;33272;51.922;7.730;2023-08-17T09:50:43;8.40;;;6.53;;
47529;SDS011;33272;51.922;7.730;2023-08-17T09:53:12;9.37;;;7.03;;
47529;SDS011;33272;51.922;7.730;2023-08-17T09:55:41;9.23;;;6.70;;
47529;SDS011;33272;51.922;7.730;2023-08-17T09:58:09;10.00;;;6.53;;
47529;SDS011;33272;51.922;7.730;2023-08-17T10:00:40;7.83;;;6.67;;
47529;SDS011;33272;51.922;7.730;2023-08-17T10:03:11;9.30;;;7.10;;
47529;SDS011;33272;51.922;7.730;2023-08-17T10:05:42;10.73;;;7.50;;
47529;SDS011;33272;51.922;7.730;2023-08-17T10:08:11;8.00;;;6.10;;
47529;SDS011;33272;51.922;7.730;2023-08-17T10:10:42;10.20;;;6.10;;
47529;SDS011;33272;51.922;7.730;2023-08-17T10:13:11;7.37;;;5.93;;
47529;SDS011;33272;51.922;7.730;2023-08-17T10:15:45;7.53;;;6.70;;
47529;SDS011;33272;51.922;7.730;2023-08-17T10:18:22;9.50;;;6.57;;
47529;SDS011;33272;51.922;7.730;2023-08-17T10:21:00;8.57;;;6.57;;
47529;SDS011;33272;51.922;7.730;2023-08-17T10:23:29;9.17;;;6.37;;
47529;SDS011;33272;51.922;7.730;2023-08-17T10:25:59;8.83;;;6.50;;
47529;SDS011;33272;51.922;7.730;2023-08-17T10:28:28;10.30;;;6.30;;
47529;SDS011;33272;51.922;7.730;2023-08-17T10:30:57;6.60;;;5.70;;
47529;SDS011;33272;51.922;7.730;2023-08-17T10:33:25;8.73;;;6.03;;
47529;SDS011;33272;51.922;7.730;2023-08-17T10:35:53;8.40;;;5.90;;
47529;SDS011;33272;51.922;7.730;2023-08-17T10:38:22;6.57;;;5.63;;
47529;SDS011;33272;51.922;7.730;2023-08-17T10:46:31;7.87;;;6.43;;
47529;SDS011;33272;51.922;7.730;2023-08-17T10:49:03;9.20;;;7.07;;
47529;SDS011;33272;51.922;7.730;2023-08-17T10:51:31;10.93;;;7.07;;
47529;SDS011;33272;51.922;7.730;2023-08-17T10:54:01;8.80;;;7.63;;
47529;SDS011;33272;51.922;7.730;2023-08-17T10:56:30;9.87;;;8.00;;
47529;SDS011;33272;51.922;7.730;2023-08-17T10:58:59;11.20;;;7.33;;
47529;SDS011;33272;51.922;7.730;2023-08-17T11:01:33;8.20;;;7.20;;
47529;SDS011;33272;51.922;7.730;2023-08-17T11:04:15;11.43;;;8.10;;
47529;SDS011;33272;51.922;7.730;2023-08-17T11:06:43;9.33;;;7.60;;
47529;SDS011;33272;51.922;7.730;2023-08-17T11:09:10;8.03;;;7.13;;
47529;SDS011;33272;51.922;7.730;2023-08-17T11:11:39;8.40;;;7.47;;
47529;SDS011;33272;51.922;7.730;2023-08-17T11:14:06;8.67;;;7.60;;
47529;SDS011;33272;51.922;7.730;2023-08-17T11:16:34;9.87;;;7.27;;
47529;SDS011;33272;51.922;7.730;2023-08-17T11:19:01;8.87;;;7.03;;
47529;SDS011;33272;51.922;7.730;2023-08-17T11:21:29;11.30;;;8.67;;
47529;SDS011;33272;51.922;7.730;2023-08-17T11:23:56;9.77;;;8.53;;
47529;SDS011;33272;51.922;7.730;2023-08-17T11:26:23;11.43;;;7.67;;
47529;SDS011;33272;51.922;7.730;2023-08-17T11:28:52;9.77;;;7.13;;
47529;SDS011;33272;51.922;7.730;2023-08-17T11:31:19;9.97;;;7.40;;
47529;SDS011;33272;51.922;7.730;2023-08-17T11:33:46;9.57;;;7.60;;
47529;SDS011;33272;51.922;7.730;2023-08-17T11:36:15;12.20;;;8.33;;
47529;SDS011;33272;51.922;7.730;2023-08-17T11:38:42;12.40;;;8.43;;
47529;SDS011;33272;51.922;7.730;2023-08-17T11:41:10;10.93;;;9.10;;
47529;SDS011;33272;51.922;7.730;2023-08-17T11:43:38;12.93;;;10.43;;
47529;SDS011;33272;51.922;7.730;2023-08-17T11:46:07;13.63;;;10.60;;
47529;SDS011;33272;51.922;7.730;2023-08-17T11:48:34;11.17;;;9.83;;
47529;SDS011;33272;51.922;7.730;2023-08-17T11:51:02;11.63;;;9.93;;
47529;SDS011;33272;51.922;7.730;2023-08-17T11:53:33;13.33;;;10.60;;
47529;SDS011;33272;51.922;7.730;2023-08-17T11:56:00;12.97;;;10.37;;
47529;SDS011;33272;51.922;7.730;2023-08-17T11:58:40;11.80;;;9.90;;
47529;SDS011;33272;51.922;7.730;2023-08-17T12:01:10;13.37;;;10.93;;
47529;SDS011;33272;51.922;7.730;2023-08-17T12:03:38;14.53;;;11.43;;
47529;SDS011;33272;51.922;7.730;2023-08-17T12:06:06;15.30;;;10.60;;
47529;SDS011;33272;51.922;7.730;2023-08-17T12:08:33;15.80;;;11.63;;
47529;SDS011;33272;51.922;7.730;2023-08-17T12:11:00;13.63;;;10.50;;
47529;SDS011;33272;51.922;7.730;2023-08-17T12:13:32;11.77;;;10.33;;
47529;SDS011;33272;51.922;7.730;2023-08-17T12:16:00;13.90;;;11.10;;
47529;SDS011;33272;51.922;7.730;2023-08-17T12:18:30;11.13;;;9.90;;
47529;SDS011;33272;51.922;7.730;2023-08-17T12:20:59;12.77;;;10.33;;
47529;SDS011;33272;51.922;7.730;2023-08-17T12:23:26;12.93;;;9.93;;
47529;SDS011;33272;51.922;7.730;2023-08-17T12:25:53;10.93;;;9.73;;
47529;SDS011;33272;51.922;7.730;2023-08-17T12:28:21;11.17;;;9.13;;
47529;SDS011;33272;51.922;7.730;2023-08-17T12:30:56;11.47;;;9.10;;
47529;SDS011;33272;51.922;7.730;2023-08-17T12:33:25;11.80;;;9.30;;
47529;SDS011;33272;51.922;7.730;2023-08-17T12:35:53;11.37;;;9.17;;
47529;SDS011;33272;51.922;7.730;2023-08-17T12:38:22;10.90;;;8.67;;
47529;SDS011;33272;51.922;7.730;2023-08-17T12:40:50;9.37;;;8.47;;
47529;SDS011;33272;51.922;7.730;2023-08-17T12:43:17;11.77;;;8.50;;
47529;SDS011;33272;51.922;7.730;2023-08-17T12:45:44;10.23;;;9.20;;
47529;SDS011;33272;51.922;7.730;2023-08-17T12:48:11;11.77;;;9.27;;
47529;SDS011;33272;51.922;7.730;2023-08-17T12:50:38;11.77;;;8.50;;
47529;SDS011;33272;51.922;7.730;2023-08-17T12:53:06;12.40;;;9.17;;
47529;SDS011;33272;51.922;7.730;2023-08-17T12:55:33;10.90;;;8.23;;
47529;SDS011;33272;51.922;7.730;2023-08-17T12:58:00;11.40;;;9.10;;
47529;SDS011;33272;51.922;7.730;2023-08-17T13:00:28;10.20;;;9.17;;
47529;SDS011;33272;51.922;7.730;2023-08-17T13:02:54;10.07;;;8.97;;
47529;SDS011;33272;51.922;7.730;2023-08-17T13:05:21;11.70;;;9.07;;
47529;SDS011;33272;51.922;7.730;2023-08-17T13:07:48;10.87;;;8.70;;
47529;SDS011;33272;51.922;7.730;2023-08-17T13:10:17;9.80;;;7.67;;
47529;SDS011;33272;51.922;7.730;2023-08-17T13:12:44;9.63;;;7.93;;
47529;SDS011;33272;51.922;7.730;2023-08-17T13:15:12;9.67;;;8.07;;
47529;SDS011;33272;51.922;7.730;2023-08-17T13:17:39;9.10;;;8.10;;
47529;SDS011;33272;51.922;7.730;2023-08-17T13:20:06;9.60;;;8.53;;
47529;SDS011;33272;51.922;7.730;2023-08-17T13:22:35;10.90;;;8.37;;
47529;SDS011;33272;51.922;7.730;2023-08-17T13:25:02;9.77;;;8.37;;
47529;SDS011;33272;51.922;7.730;2023-08-17T13:27:32;13.20;;;8.40;;
47529;SDS011;33272;51.922;7.730;2023-08-17T13:29:59;11.57;;;8.37;;
47529;SDS011;33272;51.922;7.730;2023-08-17T13:32:26;11.83;;;8.83;;
47529;SDS011;33272;51.922;7.730;2023-08-17T13:34:54;9.53;;;8.53;;
47529;SDS011;33272;51.922;7.730;2023-08-17T13:37:21;9.77;;;7.60;;
47529;SDS011;33272;51.922;7.730;2023-08-17T13:39:48;9.43;;;7.90;;
47529;SDS011;33272;51.922;7.730;2023-08-17T13:42:15;9.07;;;7.70;;
47529;SDS011;33272;51.922;7.730;2023-08-17T13:44:44;8.97;;;7.87;;
47529;SDS011;33272;51.922;7.730;2023-08-17T13:47:11;8.73;;;7.83;;
47529;SDS011;33272;51.922;7.730;2023-08-17T13:49:38;8.47;;;7.57;;
47529;SDS011;33272;51.922;7.730;2023-08-17T13:52:05;10.17;;;8.33;;
47529;SDS011;33272;51.922;7.730;2023-08-17T13:54:32;9.47;;;8.03;;
47529;SDS011;33272;51.922;7.730;2023-08-17T13:56:59;8.83;;;7.93;;
47529;SDS011;33272;51.922;7.730;2023-08-17T13:59:26;8.90;;;8.00;;
47529;SDS011;33272;51.922;7.730;2023-08-17T14:01:56;9.37;;;7.30;;
47529;SDS011;33272;51.922;7.730;2023-08-17T14:04:23;9.23;;;8.10;;
47529;SDS011;33272;51.922;7.730;2023-08-17T14:06:50;9.30;;;8.17;;
47529;SDS011;33272;51.922;7.730;2023-08-17T14:09:17;10.83;;;8.87;;
47529;SDS011;33272;51.922;7.730;2023-08-17T14:11:44;9.67;;;8.43;;
47529;SDS011;33272;51.922;7.730;2023-08-17T14:14:11;9.27;;;8.27;;
47529;SDS011;33272;51.922;7.730;2023-08-17T14:16:38;9.33;;;8.03;;
47529;SDS011;33272;51.922;7.730;2023-08-17T14:19:06;9.87;;;8.70;;
47529;SDS011;33272;51.922;7.730;2023-08-17T14:21:33;11.17;;;9.10;;
47529;SDS011;33272;51.922;7.730;2023-08-17T14:24:00;9.27;;;8.37;;
47529;SDS011;33272;51.922;7.730;2023-08-17T14:26:27;9.13;;;8.23;;
47529;SDS011;33272;51.922;7.730;2023-08-17T14:28:54;10.43;;;8.20;;
47529;SDS011;33272;51.922;7.730;2023-08-17T14:31:21;10.97;;;8.43;;
47529;SDS011;33272;51.922;7.730;2023-08-17T14:33:48;10.33;;;8.07;;
47529;SDS011;33272;51.922;7.730;2023-08-17T14:36:16;9.57;;;8.57;;
47529;SDS011;33272;51.922;7.730;2023-08-17T14:38:43;9.60;;;8.53;;
47529;SDS011;33272;51.922;7.730;2023-08-17T14:41:10;10.07;;;9.00;;
47529;SDS011;33272;51.922;7.730;2023-08-17T14:43:37;9.13;;;8.20;;
47529;SDS011;33272;51.922;7.730;2023-08-17T14:46:04;10.90;;;9.07;;
47529;SDS011;33272;51.922;7.730;2023-08-17T14:48:31;13.03;;;9.07;;
47529;SDS011;33272;51.922;7.730;2023-08-17T14:50:58;9.80;;;8.80;;
47529;SDS011;33272;51.922;7.730;2023-08-17T14:53:26;9.60;;;8.53;;
47529;SDS011;33272;51.922;7.730;2023-08-17T14:55:54;10.70;;;8.27;;